Time;durP1;ratioP1;P1;durP2;ratioP2;P2;SDS_P1;SDS_P2;PMS_P1;PMS_P2;Temp;Humidity;BMP_temperature;BMP_pressure;BME280_temperature;BME280_humidity;BME280_pressure;Samples;Min_cycle;Max_cycle;Signal;HPM_P1;HPM_P2
2021/12/31 15:15:49;;;;;;;3.30;1.60;;;11.50;97.40;;;;;;5004633;27;20579;-73
2021/12/31 15:18:16;;;;;;;3.60;1.90;;;11.60;98.20;;;;;;4976693;28;20545;-68
2021/12/31 15:20:44;;;;;;;3.13;1.80;;;11.90;98.20;;;;;;5019105;28;20444;-70
2021/12/31 15:23:12;;;;;;;7.90;2.17;;;12.20;97.80;;;;;;5021015;28;20596;-69
2021/12/31 15:25:42;;;;;;;3.40;1.80;;;12.50;97.80;;;;;;5022693;28;20472;-69
2021/12/31 15:28:10;;;;;;;3.47;1.60;;;12.70;96.80;;;;;;5019739;28;20495;-68
2021/12/31 15:30:39;;;;;;;3.40;1.60;;;12.90;95.80;;;;;;5019401;28;21049;-70
2021/12/31 15:33:09;;;;;;;3.83;1.93;;;13.10;96.00;;;;;;5020330;28;21912;-67
2021/12/31 15:35:37;;;;;;;3.77;1.90;;;13.20;95.80;;;;;;5020100;28;20479;-69
2021/12/31 15:38:05;;;;;;;3.20;1.70;;;13.30;95.30;;;;;;5020220;28;21443;-68
2021/12/31 15:40:33;;;;;;;3.50;1.87;;;13.40;94.70;;;;;;5019939;28;20980;-68
2021/12/31 15:43:01;;;;;;;6.73;2.07;;;13.40;94.00;;;;;;5019281;28;20458;-67
2021/12/31 15:45:30;;;;;;;3.23;1.50;;;13.40;94.20;;;;;;5018461;28;20550;-69
2021/12/31 15:47:59;;;;;;;4.37;2.00;;;13.40;93.70;;;;;;5041861;28;20904;-69
2021/12/31 15:50:28;;;;;;;2.90;1.50;;;13.40;93.40;;;;;;5039061;28;20461;-69
2021/12/31 15:52:56;;;;;;;4.17;2.10;;;13.50;93.50;;;;;;5041293;28;20867;-69
2021/12/31 15:55:25;;;;;;;3.13;1.70;;;13.50;93.20;;;;;;5041182;28;20486;-68
2021/12/31 15:57:53;;;;;;;3.30;1.73;;;13.50;93.00;;;;;;5033212;28;20501;-70
2021/12/31 16:00:21;;;;;;;4.07;1.97;;;13.50;92.80;;;;;;5036925;28;20454;-69
2021/12/31 16:02:49;;;;;;;6.30;1.80;;;13.50;92.60;;;;;;5039743;28;20465;-68
2021/12/31 16:05:18;;;;;;;5.00;1.83;;;13.50;92.40;;;;;;5038916;28;20450;-69
2021/12/31 16:07:48;;;;;;;3.60;2.03;;;13.50;92.40;;;;;;5034515;28;20488;-68
2021/12/31 16:10:17;;;;;;;3.60;1.87;;;13.50;92.30;;;;;;5038563;28;20466;-69
2021/12/31 16:12:45;;;;;;;3.30;1.90;;;13.50;92.30;;;;;;5037946;28;20463;-67
2021/12/31 16:15:17;;;;;;;3.23;1.93;;;13.50;92.10;;;;;;5038748;28;20482;-70
2021/12/31 16:17:46;;;;;;;8.97;2.10;;;13.50;91.40;;;;;;5040973;28;20858;-68
2021/12/31 16:20:16;;;;;;;4.40;1.90;;;13.50;91.60;;;;;;5039450;28;20998;-69
2021/12/31 16:22:44;;;;;;;3.20;1.83;;;13.50;91.50;;;;;;5038846;28;20467;-70
2021/12/31 16:25:14;;;;;;;3.97;2.17;;;13.50;91.40;;;;;;5036788;28;20458;-68
2021/12/31 16:27:43;;;;;;;5.47;2.40;;;13.40;91.20;;;;;;5023710;28;20484;-68
2021/12/31 16:30:12;;;;;;;4.27;1.80;;;13.40;91.20;;;;;;5034011;28;20489;-68
2021/12/31 16:32:41;;;;;;;5.07;1.93;;;13.40;91.00;;;;;;5025022;28;20520;-68
2021/12/31 16:35:12;;;;;;;2.90;1.70;;;13.40;90.90;;;;;;5023332;28;20482;-69
2021/12/31 16:37:40;;;;;;;3.03;1.80;;;13.30;90.20;;;;;;5027442;28;20595;-69
2021/12/31 16:40:12;;;;;;;5.83;1.50;;;13.30;89.80;;;;;;5025556;28;20476;-69
2021/12/31 16:42:42;;;;;;;3.10;1.60;;;13.20;90.30;;;;;;5027388;28;20538;-68
2021/12/31 16:45:12;;;;;;;4.50;1.70;;;13.20;90.40;;;;;;5025248;28;20955;-68
2021/12/31 16:47:41;;;;;;;3.90;2.23;;;13.10;89.80;;;;;;5026943;28;20478;-68
2021/12/31 16:50:10;;;;;;;3.80;1.63;;;13.10;90.50;;;;;;5027536;28;20467;-68
2021/12/31 16:52:37;;;;;;;3.63;2.17;;;13.20;90.60;;;;;;5026589;28;20454;-69
2021/12/31 16:55:10;;;;;;;3.40;1.60;;;13.20;90.50;;;;;;5026318;28;20476;-69
2021/12/31 16:57:38;;;;;;;2.90;1.60;;;13.20;90.10;;;;;;5022930;28;20834;-69
2021/12/31 17:00:09;;;;;;;3.57;1.97;;;13.10;90.00;;;;;;5023757;28;20465;-68
2021/12/31 17:02:37;;;;;;;5.50;1.77;;;13.10;89.90;;;;;;5005096;28;20603;-68
2021/12/31 17:05:06;;;;;;;3.60;1.77;;;13.10;90.00;;;;;;5004384;28;20481;-69
2021/12/31 17:07:35;;;;;;;2.57;1.60;;;13.10;89.90;;;;;;5007855;28;20484;-67
2021/12/31 17:10:04;;;;;;;2.37;1.30;;;13.00;90.00;;;;;;5008290;28;20449;-71
2021/12/31 17:12:32;;;;;;;3.10;1.67;;;13.00;90.00;;;;;;5006156;28;20824;-71
2021/12/31 17:15:00;;;;;;;2.40;1.30;;;13.00;89.80;;;;;;5006061;28;20480;-72
2021/12/31 17:17:29;;;;;;;3.87;1.83;;;13.00;89.80;;;;;;5021954;28;20511;-73
2021/12/31 17:20:00;;;;;;;3.87;1.50;;;13.00;89.70;;;;;;5022558;28;20466;-72
2021/12/31 17:22:28;;;;;;;2.60;1.47;;;13.00;89.40;;;;;;5025677;28;21059;-68
2021/12/31 17:24:56;;;;;;;2.80;1.43;;;13.00;89.70;;;;;;5025776;28;20462;-67
2021/12/31 17:27:24;;;;;;;2.60;1.43;;;13.00;89.70;;;;;;5025886;28;20881;-68
2021/12/31 17:29:53;;;;;;;3.00;1.50;;;12.90;89.40;;;;;;5026023;28;20456;-70
2021/12/31 17:32:21;;;;;;;3.10;1.53;;;12.90;89.40;;;;;;5007428;28;20518;-72
2021/12/31 17:34:52;;;;;;;3.73;1.57;;;12.90;89.40;;;;;;5011696;28;20452;-68
2021/12/31 17:37:21;;;;;;;3.13;1.70;;;12.90;89.60;;;;;;5013430;28;20460;-70
2021/12/31 17:39:51;;;;;;;5.00;1.83;;;12.90;89.70;;;;;;5011644;28;20532;-70
2021/12/31 17:42:19;;;;;;;4.33;1.60;;;12.90;89.40;;;;;;5013317;28;20494;-70
2021/12/31 17:44:47;;;;;;;2.40;1.50;;;13.00;89.40;;;;;;5014765;28;20462;-67
2021/12/31 17:47:15;;;;;;;3.00;1.63;;;13.00;89.40;;;;;;5030022;28;20475;-68
2021/12/31 17:49:44;;;;;;;3.60;2.03;;;13.00;89.00;;;;;;5033543;28;20485;-67
2021/12/31 17:52:13;;;;;;;3.03;2.17;;;13.00;89.10;;;;;;5031851;28;20472;-70
2021/12/31 17:54:41;;;;;;;2.57;1.63;;;13.00;89.20;;;;;;5032401;28;20456;-68
2021/12/31 17:57:10;;;;;;;3.70;1.90;;;12.90;88.90;;;;;;5033395;28;20520;-68
2021/12/31 17:59:38;;;;;;;3.00;1.60;;;12.90;88.80;;;;;;5032593;28;20463;-69
2021/12/31 18:02:06;;;;;;;3.33;1.90;;;12.90;88.80;;;;;;5013585;28;21002;-69
2021/12/31 18:04:34;;;;;;;3.40;2.10;;;13.00;88.60;;;;;;5012626;28;20456;-69
2021/12/31 18:07:02;;;;;;;3.87;2.13;;;12.90;88.40;;;;;;5012084;28;20467;-69
2021/12/31 18:09:32;;;;;;;2.70;2.10;;;12.90;88.30;;;;;;5004615;28;20505;-69
2021/12/31 18:11:59;;;;;;;4.70;2.23;;;12.90;88.60;;;;;;5005625;28;21032;-70
2021/12/31 18:14:28;;;;;;;3.50;1.90;;;12.90;88.60;;;;;;5004938;28;20463;-70
2021/12/31 18:16:57;;;;;;;5.23;2.40;;;12.90;88.60;;;;;;5004033;28;20510;-71
2021/12/31 18:19:26;;;;;;;4.70;2.40;;;12.80;88.30;;;;;;5005526;28;21013;-70
2021/12/31 18:21:54;;;;;;;3.90;2.50;;;12.80;88.40;;;;;;5005004;28;20990;-70
2021/12/31 18:24:22;;;;;;;5.13;2.60;;;12.80;88.50;;;;;;5006324;28;20502;-71
2021/12/31 18:26:53;;;;;;;4.40;2.87;;;12.80;88.20;;;;;;5003669;28;20454;-70
2021/12/31 18:29:21;;;;;;;4.13;2.53;;;12.80;88.40;;;;;;5005748;28;20473;-69
2021/12/31 18:31:49;;;;;;;3.90;2.60;;;12.80;88.50;;;;;;5006132;28;20474;-68
2021/12/31 18:34:18;;;;;;;3.20;2.13;;;12.80;88.40;;;;;;5003940;28;20518;-69
2021/12/31 18:36:46;;;;;;;3.60;2.70;;;12.80;88.30;;;;;;5006857;28;21051;-70
2021/12/31 18:39:14;;;;;;;4.17;2.57;;;12.80;88.30;;;;;;5004363;28;21017;-70
2021/12/31 18:41:46;;;;;;;3.37;2.37;;;12.80;88.10;;;;;;5005798;28;20827;-70
2021/12/31 18:44:17;;;;;;;8.23;3.20;;;12.70;88.10;;;;;;5003846;28;20955;-70
2021/12/31 18:46:54;;;;;;;8.47;3.00;;;12.70;88.30;;;;;;5003298;28;20472;-70
2021/12/31 18:49:24;;;;;;;4.90;3.30;;;12.70;88.30;;;;;;5000761;28;20464;-68
2021/12/31 18:51:53;;;;;;;5.60;2.93;;;12.70;88.30;;;;;;4998387;28;20460;-70
2021/12/31 18:54:21;;;;;;;6.03;3.77;;;12.70;88.30;;;;;;5000794;28;20445;-70
2021/12/31 18:56:50;;;;;;;5.23;3.30;;;12.70;88.30;;;;;;5002721;28;20525;-70
2021/12/31 18:59:19;;;;;;;4.77;3.40;;;12.70;88.30;;;;;;5002717;28;20480;-68
2021/12/31 19:01:47;;;;;;;3.90;2.90;;;12.70;87.90;;;;;;5002527;28;20987;-67
2021/12/31 19:04:20;;;;;;;5.60;3.20;;;12.70;88.20;;;;;;5005618;28;20486;-67
2021/12/31 19:06:48;;;;;;;5.40;3.40;;;12.70;88.10;;;;;;5004796;28;20469;-67
2021/12/31 19:09:16;;;;;;;6.73;4.03;;;12.70;88.00;;;;;;5003134;28;20493;-68
2021/12/31 19:11:44;;;;;;;4.80;3.50;;;12.70;88.10;;;;;;5003656;28;20451;-69
2021/12/31 19:14:12;;;;;;;5.63;3.60;;;12.70;88.00;;;;;;5004093;28;20475;-69
2021/12/31 19:16:41;;;;;;;5.70;4.10;;;12.70;88.00;;;;;;5003308;28;20521;-68
2021/12/31 19:19:09;;;;;;;5.07;3.50;;;12.70;87.90;;;;;;5002792;28;21029;-68
2021/12/31 19:21:37;;;;;;;5.73;3.40;;;12.70;88.00;;;;;;5004008;28;20504;-68
2021/12/31 19:24:06;;;;;;;7.40;4.13;;;12.70;87.90;;;;;;5002392;28;20476;-70
2021/12/31 19:26:34;;;;;;;5.10;3.90;;;12.70;87.90;;;;;;5001904;28;21011;-68
2021/12/31 19:29:02;;;;;;;6.13;4.00;;;12.70;87.90;;;;;;5005562;28;20478;-70
2021/12/31 19:31:30;;;;;;;5.47;4.00;;;12.70;87.90;;;;;;5008551;28;20499;-69
2021/12/31 19:34:00;;;;;;;4.70;3.80;;;12.70;87.70;;;;;;5006646;28;20986;-70
2021/12/31 19:36:27;;;;;;;5.80;4.10;;;12.70;87.80;;;;;;5010749;28;20897;-69
2021/12/31 19:38:55;;;;;;;6.23;4.87;;;12.70;87.80;;;;;;5008855;28;20498;-69
2021/12/31 19:41:23;;;;;;;8.07;4.23;;;12.70;87.60;;;;;;5005677;28;20471;-69
2021/12/31 19:43:56;;;;;;;5.43;4.27;;;12.80;87.60;;;;;;5008295;28;20510;-69
2021/12/31 19:46:24;;;;;;;5.37;4.57;;;12.70;87.70;;;;;;5019701;28;20473;-69
2021/12/31 19:48:53;;;;;;;5.70;4.30;;;12.80;87.60;;;;;;5030621;28;20481;-69
2021/12/31 19:51:22;;;;;;;5.77;4.57;;;12.80;87.60;;;;;;5030245;28;20451;-69
2021/12/31 19:53:51;;;;;;;6.83;4.87;;;12.80;87.50;;;;;;5029305;28;20453;-68
2021/12/31 19:56:19;;;;;;;6.00;4.80;;;12.80;87.50;;;;;;5026265;28;20474;-70
2021/12/31 19:58:47;;;;;;;5.47;4.20;;;12.80;87.50;;;;;;5021990;28;21065;-70
2021/12/31 20:01:15;;;;;;;5.73;4.63;;;12.80;87.50;;;;;;5021771;28;20466;-69
2021/12/31 20:03:43;;;;;;;4.90;4.40;;;12.80;87.30;;;;;;4945588;28;20560;-70
2021/12/31 20:06:11;;;;;;;6.67;5.10;;;12.80;87.50;;;;;;5026515;28;20470;-69
2021/12/31 20:08:41;;;;;;;5.20;4.17;;;12.80;87.50;;;;;;4999209;28;20557;-69
2021/12/31 20:11:09;;;;;;;6.00;4.47;;;12.80;87.60;;;;;;5028874;28;20481;-69
2021/12/31 20:13:39;;;;;;;6.40;4.53;;;12.80;87.50;;;;;;5026335;28;20451;-68
2021/12/31 20:16:08;;;;;;;6.67;4.40;;;12.80;87.50;;;;;;5028333;28;20489;-69
2021/12/31 20:18:37;;;;;;;7.30;4.97;;;12.80;87.60;;;;;;5028305;28;20471;-70
2021/12/31 20:21:05;;;;;;;9.10;5.20;;;12.80;87.30;;;;;;5026517;28;21164;-69
2021/12/31 20:23:33;;;;;;;5.93;4.50;;;12.80;87.50;;;;;;5027345;28;20553;-69
2021/12/31 20:26:03;;;;;;;5.80;4.70;;;12.80;87.50;;;;;;5027676;28;20512;-68
2021/12/31 20:28:31;;;;;;;6.20;4.20;;;12.90;87.20;;;;;;5027080;28;20538;-68
2021/12/31 20:30:59;;;;;;;7.57;4.83;;;12.90;87.40;;;;;;5026677;28;20485;-67
2021/12/31 20:33:32;;;;;;;8.70;4.43;;;12.80;87.30;;;;;;5028096;28;20551;-70
2021/12/31 20:36:00;;;;;;;8.33;4.80;;;12.90;87.30;;;;;;5028117;28;20503;-69
2021/12/31 20:38:28;;;;;;;5.97;4.80;;;12.80;87.40;;;;;;5025193;28;20490;-68
2021/12/31 20:40:56;;;;;;;5.83;4.13;;;12.90;87.40;;;;;;5026540;28;20940;-69
2021/12/31 20:43:25;;;;;;;6.97;4.50;;;12.90;87.40;;;;;;5022994;28;20455;-68
2021/12/31 20:45:53;;;;;;;8.20;4.87;;;13.00;87.40;;;;;;5018437;28;20473;-70
2021/12/31 20:48:22;;;;;;;6.87;4.40;;;13.00;87.30;;;;;;5006356;28;20510;-70
2021/12/31 20:50:51;;;;;;;5.83;4.20;;;13.00;87.40;;;;;;5005679;28;20468;-67
2021/12/31 20:53:19;;;;;;;7.50;5.13;;;13.00;87.20;;;;;;5004316;28;20477;-69
2021/12/31 20:55:47;;;;;;;8.77;4.80;;;13.00;87.30;;;;;;5006519;28;20466;-69
2021/12/31 20:58:15;;;;;;;7.07;4.40;;;13.00;87.20;;;;;;5005205;28;20525;-68
2021/12/31 21:00:44;;;;;;;5.43;4.23;;;13.00;87.30;;;;;;5004604;28;20478;-70
2021/12/31 21:03:12;;;;;;;8.83;4.30;;;13.00;87.20;;;;;;5006533;28;20503;-71
2021/12/31 21:05:40;;;;;;;6.63;4.03;;;13.00;87.30;;;;;;5006295;28;20530;-70
2021/12/31 21:08:08;;;;;;;5.90;4.40;;;13.00;87.30;;;;;;5007661;28;20489;-70
2021/12/31 21:10:36;;;;;;;6.90;4.43;;;13.00;87.30;;;;;;5007905;28;20455;-69
2021/12/31 21:13:06;;;;;;;7.50;4.87;;;13.00;87.40;;;;;;5004568;28;20521;-68
2021/12/31 21:15:36;;;;;;;6.03;4.30;;;13.00;87.20;;;;;;5004515;28;20862;-68
2021/12/31 21:18:08;;;;;;;6.60;4.87;;;13.00;87.30;;;;;;5003836;28;20995;-67
2021/12/31 21:20:37;;;;;;;8.30;4.60;;;13.00;87.40;;;;;;5005964;28;21146;-68
2021/12/31 21:23:06;;;;;;;10.17;4.60;;;13.00;87.30;;;;;;5006773;28;20466;-68
2021/12/31 21:25:34;;;;;;;4.90;4.07;;;13.00;87.30;;;;;;5006402;28;20942;-68
2021/12/31 21:28:08;;;;;;;6.07;4.60;;;13.00;87.50;;;;;;5007076;28;20463;-68
2021/12/31 21:30:37;;;;;;;6.63;4.47;;;13.00;87.40;;;;;;5005511;28;20471;-68
2021/12/31 21:33:06;;;;;;;7.63;4.47;;;13.00;87.40;;;;;;5004237;28;20452;-68
2021/12/31 21:35:36;;;;;;;7.53;4.80;;;13.10;87.40;;;;;;5005847;28;20461;-69
2021/12/31 21:38:05;;;;;;;7.23;4.47;;;13.10;87.40;;;;;;5005541;28;20500;-68
2021/12/31 21:40:34;;;;;;;6.43;4.83;;;13.00;87.50;;;;;;5005931;28;20459;-68
2021/12/31 21:43:02;;;;;;;8.50;4.60;;;13.00;87.30;;;;;;5005231;28;20455;-67
2021/12/31 21:45:30;;;;;;;7.30;5.20;;;13.10;87.50;;;;;;5003763;28;21446;-68
2021/12/31 21:47:58;;;;;;;6.33;4.67;;;13.10;87.40;;;;;;5004196;28;20492;-68
2021/12/31 21:50:28;;;;;;;5.93;4.00;;;13.10;87.40;;;;;;5007803;28;20454;-69
2021/12/31 21:52:56;;;;;;;7.40;4.50;;;13.10;87.50;;;;;;5003210;28;20821;-69
2021/12/31 21:55:24;;;;;;;6.07;4.30;;;13.20;87.30;;;;;;5005648;28;21027;-69
2021/12/31 21:57:52;;;;;;;5.63;4.27;;;13.10;87.30;;;;;;5005648;28;21098;-70
2021/12/31 22:00:20;;;;;;;6.13;4.30;;;13.10;87.30;;;;;;5005841;28;20458;-69
2021/12/31 22:02:48;;;;;;;6.60;4.60;;;13.10;87.40;;;;;;5006709;28;20456;-69
2021/12/31 22:05:16;;;;;;;6.10;4.87;;;13.10;87.30;;;;;;5015950;28;20492;-69
2021/12/31 22:07:45;;;;;;;6.20;4.30;;;13.10;87.50;;;;;;5019458;28;20478;-70
2021/12/31 22:10:13;;;;;;;5.30;4.00;;;13.10;87.50;;;;;;5014790;28;20461;-68
2021/12/31 22:12:41;;;;;;;5.40;4.57;;;13.20;87.40;;;;;;5015301;28;20454;-69
2021/12/31 22:15:10;;;;;;;6.30;4.30;;;13.20;87.30;;;;;;5007150;28;20918;-68
2021/12/31 22:17:38;;;;;;;7.43;4.20;;;13.20;87.40;;;;;;5004957;28;20557;-69
2021/12/31 22:20:07;;;;;;;6.53;4.40;;;13.20;87.40;;;;;;5005457;28;20455;-68
2021/12/31 22:22:35;;;;;;;5.47;3.90;;;13.20;87.40;;;;;;5006362;28;20447;-68
2021/12/31 22:25:11;;;;;;;5.90;4.37;;;13.20;87.50;;;;;;5002482;28;20491;-68
2021/12/31 22:27:39;;;;;;;6.43;4.00;;;13.20;87.40;;;;;;5002972;28;20480;-68
2021/12/31 22:30:16;;;;;;;6.93;4.27;;;13.30;87.40;;;;;;5000180;28;20464;-68
2021/12/31 22:32:48;;;;;;;6.10;4.73;;;13.30;87.20;;;;;;5003277;28;20469;-68
2021/12/31 22:35:21;;;;;;;6.40;4.40;;;13.20;87.30;;;;;;4998641;28;20478;-68
2021/12/31 22:37:54;;;;;;;5.53;4.30;;;13.30;87.30;;;;;;5000668;28;20482;-68
2021/12/31 22:40:24;;;;;;;5.30;3.80;;;13.20;87.30;;;;;;5000284;28;20461;-69
2021/12/31 22:42:56;;;;;;;5.10;3.50;;;13.30;87.30;;;;;;4960287;28;20563;-67
2021/12/31 22:45:25;;;;;;;6.83;4.00;;;13.30;87.10;;;;;;5008872;28;20458;-68
2021/12/31 22:47:53;;;;;;;6.33;4.43;;;13.30;87.20;;;;;;5019930;28;20470;-69
2021/12/31 22:50:21;;;;;;;4.90;4.37;;;13.30;87.30;;;;;;5029527;28;20783;-68
2021/12/31 22:52:49;;;;;;;5.47;4.37;;;13.30;87.20;;;;;;5029929;28;20466;-68
2021/12/31 22:55:17;;;;;;;7.53;4.60;;;13.30;87.20;;;;;;5024933;28;20616;-69
2021/12/31 22:57:46;;;;;;;7.40;5.33;;;13.30;87.20;;;;;;5021525;28;20494;-70
2021/12/31 23:00:16;;;;;;;8.50;4.63;;;13.30;87.20;;;;;;5023026;28;20981;-69
2021/12/31 23:02:44;;;;;;;5.60;4.27;;;13.30;87.10;;;;;;5027612;28;20512;-68
2021/12/31 23:05:12;;;;;;;5.33;4.23;;;13.30;87.00;;;;;;5027625;28;20938;-68
2021/12/31 23:07:40;;;;;;;5.00;3.93;;;13.30;87.20;;;;;;5028725;28;20868;-68
2021/12/31 23:10:11;;;;;;;7.80;5.00;;;13.30;87.10;;;;;;5020268;28;20494;-68
2021/12/31 23:12:39;;;;;;;6.10;4.17;;;13.30;87.00;;;;;;5022816;28;20464;-68
2021/12/31 23:15:10;;;;;;;8.17;4.70;;;13.30;87.00;;;;;;5024049;28;20482;-68
2021/12/31 23:17:38;;;;;;;7.00;4.53;;;13.30;87.10;;;;;;5025795;28;21218;-67
2021/12/31 23:20:07;;;;;;;4.90;3.93;;;13.30;87.20;;;;;;5025931;28;20551;-68
2021/12/31 23:22:35;;;;;;;6.93;5.10;;;13.30;87.20;;;;;;5024424;28;20455;-68
2021/12/31 23:25:03;;;;;;;6.60;4.80;;;13.30;87.20;;;;;;5025925;28;20484;-68
2021/12/31 23:27:38;;;;;;;6.97;5.50;;;13.30;87.10;;;;;;5022463;28;20461;-68
2021/12/31 23:30:08;;;;;;;5.77;5.00;;;13.30;87.20;;;;;;5023244;28;20454;-68
2021/12/31 23:32:36;;;;;;;5.80;4.63;;;13.30;87.00;;;;;;5005199;28;20463;-68
2021/12/31 23:35:05;;;;;;;7.10;4.40;;;13.30;87.00;;;;;;5011887;28;20451;-68
2021/12/31 23:37:33;;;;;;;6.40;4.53;;;13.30;87.10;;;;;;5014463;28;20462;-68
2021/12/31 23:40:02;;;;;;;11.20;4.80;;;13.30;87.10;;;;;;5014237;28;20991;-68
2021/12/31 23:42:33;;;;;;;6.73;5.37;;;13.30;87.10;;;;;;5012149;28;20455;-68
2021/12/31 23:45:02;;;;;;;9.60;5.00;;;13.30;87.00;;;;;;5017201;28;20456;-67
2021/12/31 23:47:32;;;;;;;6.50;4.70;;;13.30;87.00;;;;;;5029198;28;20586;-69
2021/12/31 23:50:01;;;;;;;8.00;4.63;;;13.30;87.00;;;;;;5029893;28;20456;-68
2021/12/31 23:52:29;;;;;;;7.00;4.70;;;13.30;86.90;;;;;;5028425;28;20529;-69
2021/12/31 23:54:57;;;;;;;4.97;3.83;;;13.30;86.90;;;;;;5025440;28;20451;-67
2021/12/31 23:57:26;;;;;;;6.47;4.33;;;13.30;86.80;;;;;;5025084;28;21018;-68
2021/12/31 23:59:54;;;;;;;6.13;4.10;;;13.30;86.90;;;;;;5024148;28;21290;-68
